createdAt,value
2023-02-27T00:09:36.507Z,-0.85
2023-02-27T00:19:38.909Z,-1.11
2023-02-27T00:29:41.080Z,-0.96
2023-02-27T00:39:43.310Z,-0.48
2023-02-27T00:49:45.902Z,-0.92
2023-02-27T00:59:48.652Z,-1.15
2023-02-27T01:09:50.980Z,-1.73
2023-02-27T01:19:53.288Z,-1.34
2023-02-27T01:29:57.833Z,-1.33
2023-02-27T01:39:59.984Z,-1.52
2023-02-27T01:50:02.319Z,-1.55
2023-02-27T02:00:06.715Z,-1.73
2023-02-27T02:10:16.386Z,-1.50
2023-02-27T02:20:56.049Z,-1.49
2023-02-27T02:31:22.853Z,-2.06
2023-02-27T02:41:50.833Z,-1.94
2023-02-27T02:52:14.453Z,-1.70
2023-02-27T03:02:21.386Z,-1.64
2023-02-27T03:12:25.014Z,-1.69
2023-02-27T03:22:32.711Z,-2.51
2023-02-27T03:32:42.567Z,-2.32
2023-02-27T03:42:55.117Z,-2.35
2023-02-27T03:53:11.648Z,-2.49
2023-02-27T04:03:14.175Z,-2.23
2023-02-27T04:13:54.372Z,-2.40
2023-02-27T04:24:16.143Z,-2.69
2023-02-27T04:34:18.225Z,-2.47
2023-02-27T04:44:21.739Z,-2.29
2023-02-27T04:55:09.630Z,-2.24
2023-02-27T05:05:16.457Z,-2.89
2023-02-27T05:15:40.429Z,-2.86
2023-02-27T05:25:52.464Z,-2.69
2023-02-27T05:36:43.052Z,-2.64
2023-02-27T05:46:50.066Z,-2.38
2023-02-27T05:56:54.299Z,-2.68
2023-02-27T06:06:57.199Z,-2.83
2023-02-27T06:17:00.511Z,-2.69
2023-02-27T06:27:02.898Z,-3.32
2023-02-27T06:37:04.974Z,-3.05
2023-02-27T06:47:07.278Z,-3.20
2023-02-27T06:57:09.377Z,-3.60
2023-02-27T07:07:35.189Z,-2.98
2023-02-27T07:17:33.670Z,-2.75
2023-02-27T07:27:35.864Z,-2.79
2023-02-27T07:37:38.244Z,-2.08
2023-02-27T07:47:40.623Z,-2.19
2023-02-27T07:57:44.661Z,-1.73
2023-02-27T08:07:46.841Z,-1.34
2023-02-27T08:17:48.984Z,-1.73
2023-02-27T08:27:52.124Z,-1.44
2023-02-27T08:37:54.214Z,-1.29
2023-02-27T08:47:56.586Z,-0.79
2023-02-27T08:57:58.685Z,-0.70
2023-02-27T09:08:04.617Z,-0.34
2023-02-27T09:18:07.058Z,-0.02
2023-02-27T09:28:09.212Z,0.17
2023-02-27T09:38:12.386Z,0.42
2023-02-27T09:48:36.683Z,0.15
2023-02-27T09:58:47.791Z,0.71
2023-02-27T10:09:11.653Z,0.98
2023-02-27T10:19:17.338Z,1.00
2023-02-27T10:29:36.654Z,1.55
2023-02-27T10:39:52.608Z,1.39
2023-02-27T10:49:56.706Z,2.32
2023-02-27T11:00:09.779Z,1.85
2023-02-27T11:10:15.265Z,2.40
2023-02-27T11:20:29.807Z,2.53
2023-02-27T11:30:32.156Z,2.06
2023-02-27T11:40:37.663Z,2.26
2023-02-27T11:50:48.694Z,2.32
2023-02-27T12:00:54.954Z,2.62
2023-02-27T12:11:13.701Z,2.16
2023-02-27T12:21:21.950Z,1.84
2023-02-27T12:31:36.304Z,2.30
2023-02-27T12:41:50.516Z,2.15
2023-02-27T12:52:35.215Z,2.78
2023-02-27T13:02:58.905Z,2.66
2023-02-27T13:13:08.800Z,2.43
2023-02-27T13:23:20.719Z,2.71
2023-02-27T13:33:34.592Z,3.81
2023-02-27T13:43:51.069Z,2.64
2023-02-27T13:54:19.730Z,2.37
2023-02-27T14:04:26.364Z,2.17
2023-02-27T14:14:41.355Z,3.09
2023-02-27T14:25:33.759Z,2.33
2023-02-27T14:35:36.076Z,3.56
2023-02-27T14:45:38.467Z,2.67
2023-02-27T14:55:41.363Z,2.89
2023-02-27T15:05:43.716Z,2.64
2023-02-27T15:15:46.144Z,2.53
2023-02-27T15:25:49.458Z,3.12
2023-02-27T15:35:52.970Z,3.44
2023-02-27T15:45:58.142Z,2.54
2023-02-27T15:56:09.673Z,3.24
2023-02-27T16:06:20.643Z,3.19
2023-02-27T16:16:23.021Z,2.69
2023-02-27T16:26:36.646Z,2.89
2023-02-27T16:36:41.102Z,2.53
2023-02-27T16:46:44.229Z,2.24
2023-02-27T16:56:47.379Z,2.38
2023-02-27T17:06:49.759Z,2.01
2023-02-27T17:16:52.072Z,2.13
2023-02-27T17:26:54.528Z,1.54
2023-02-27T17:36:56.737Z,1.76
2023-02-27T17:46:58.923Z,1.64
2023-02-27T17:57:01.187Z,1.70
2023-02-27T18:07:03.780Z,1.48
2023-02-27T18:17:11.722Z,1.71
2023-02-27T18:27:14.084Z,1.12
2023-02-27T18:37:16.355Z,1.57
2023-02-27T18:47:22.094Z,1.32
2023-02-27T18:57:24.956Z,1.61
2023-02-27T19:07:29.501Z,1.61
2023-02-27T19:17:33.691Z,1.45
2023-02-27T19:27:36.018Z,1.88
2023-02-27T19:37:39.716Z,1.97
2023-02-27T19:47:42.012Z,1.83
2023-02-27T19:57:44.819Z,1.27
2023-02-27T20:07:49.349Z,1.22
2023-02-27T20:17:51.483Z,0.99
2023-02-27T20:27:54.347Z,1.22
2023-02-27T20:37:56.731Z,1.45
2023-02-27T20:47:58.824Z,1.10
2023-02-27T20:58:01.188Z,1.21
2023-02-27T21:08:03.566Z,0.50
2023-02-27T21:18:05.711Z,0.50
2023-02-27T21:28:08.358Z,0.66
2023-02-27T21:38:10.470Z,0.52
2023-02-27T21:48:12.866Z,-0.14
2023-02-27T21:58:15.141Z,-0.29
2023-02-27T22:08:17.263Z,-0.14
2023-02-27T22:18:20.262Z,-0.01
2023-02-27T22:28:23.185Z,-0.33
2023-02-27T22:38:25.349Z,-0.73
2023-02-27T22:48:27.904Z,-0.13
2023-02-27T22:58:31.254Z,0.24
2023-02-27T23:08:33.508Z,0.05
2023-02-27T23:18:35.805Z,-0.26
2023-02-27T23:28:38.341Z,0.04
2023-02-27T23:38:42.042Z,-0.62
2023-02-27T23:48:44.267Z,-0.97
2023-02-27T23:58:46.628Z,-1.01
